KCOD/COD METAR and TAF weather

Enter ICAO airport designator
Station Type Date Time Source
KCOD METAR 2021/04/17 01:56 UTC NOAA

KCOD 170156Z AUTO 30007KT 10SM BKN043 BKN050 BKN060 02/M04 A3030 RMK AO2 SLP293 T00221039 FZRANO


Station Type Date Time Source
KCOD Decoded METAR 2021/04/17 01:56 UTC NOAA

Cody, WY, United States (KCOD) 44-31N 109-01W 1553M
Apr 16, 2021 - 09:56 PM EDT / 2021.04.17 0156 UTC
Wind: from the WNW (300 degrees) at 8 MPH (7 KT):0
Visibility: 10 mile(s):0
Sky conditions: mostly cloudy
Temperature: 36.0 F (2.2 C)
Dew Point: 25.0 F (-3.9 C)
Relative Humidity: 63%
Pressure (altimeter): 30.3 in. Hg (1026 hPa)
ob: KCOD 170156Z AUTO 30007KT 10SM BKN043 BKN050 BKN060 02/M04 A3030 RMK AO2 SLP293 T00221039 FZRANO
cycle: 2

Station Type Date Time Source
KCOD TAF 2021/04/16 18:27 UTC NOAA

TAF KCOD 161722Z 1618/1718 VRB04KT 6SM -RASN BKN025 OVC040
FM162200 02011G18KT P6SM VCSH SCT025 BKN040
FM170200 VRB05KT P6SM BKN050
FM171500 VRB04KT P6SM BKN180

Example: see airport list